Time;durP1;ratioP1;P1;durP2;ratioP2;P2;SDS_P1;SDS_P2;PMS_P1;PMS_P2;Temp;Humidity;BMP_temperature;BMP_pressure;BME280_temperature;BME280_humidity;BME280_pressure;Samples;Min_cycle;Max_cycle;Signal;HPM_P1;HPM_P2
2023/12/20 00:01:34;;;;;;;9.32;2.10;;;5.20;99.90;;;;;;5052196;28;20040;-62
2023/12/20 00:04:01;;;;;;;11.18;3.00;;;5.20;99.90;;;;;;5034727;28;20039;-62
2023/12/20 00:06:27;;;;;;;7.47;2.25;;;5.20;99.90;;;;;;5044614;28;20041;-62
2023/12/20 00:08:54;;;;;;;12.02;2.85;;;5.20;99.90;;;;;;5051612;28;20136;-62
2023/12/20 00:11:21;;;;;;;9.20;2.10;;;5.20;99.90;;;;;;5033489;28;20041;-61
2023/12/20 00:13:48;;;;;;;9.13;2.03;;;5.20;99.90;;;;;;5032323;28;20069;-60
2023/12/20 00:16:17;;;;;;;7.88;2.00;;;5.20;99.90;;;;;;5032692;28;20046;-62
2023/12/20 00:18:44;;;;;;;9.32;2.60;;;5.20;99.90;;;;;;5034282;28;20041;-61
2023/12/20 00:21:11;;;;;;;12.98;2.08;;;5.20;99.90;;;;;;5053080;28;20540;-62
2023/12/20 00:23:38;;;;;;;9.27;2.50;;;5.20;99.90;;;;;;5052722;28;20389;-61
2023/12/20 00:26:05;;;;;;;12.55;2.00;;;5.20;99.90;;;;;;5052543;28;20043;-62
2023/12/20 00:28:32;;;;;;;12.07;2.33;;;5.20;99.90;;;;;;5051733;28;20051;-62
2023/12/20 00:30:59;;;;;;;12.23;2.20;;;5.20;99.90;;;;;;5045429;28;20041;-61
2023/12/20 00:33:26;;;;;;;9.90;2.35;;;5.20;99.90;;;;;;5032520;28;20045;-62
2023/12/20 00:35:53;;;;;;;9.48;2.30;;;5.20;99.90;;;;;;5032853;28;20041;-61
2023/12/20 00:38:20;;;;;;;13.70;2.40;;;5.20;99.90;;;;;;5051372;28;20045;-61
2023/12/20 00:40:47;;;;;;;6.90;1.73;;;5.20;99.90;;;;;;5052663;28;20482;-61
2023/12/20 00:43:13;;;;;;;8.50;1.70;;;5.20;99.90;;;;;;5040827;28;20087;-62
2023/12/20 00:45:40;;;;;;;11.02;2.58;;;5.20;99.90;;;;;;5041003;28;20541;-61
2023/12/20 00:48:07;;;;;;;11.82;1.92;;;5.20;99.90;;;;;;5040346;28;20056;-62
2023/12/20 00:50:34;;;;;;;14.00;2.10;;;5.20;99.90;;;;;;5042032;28;20041;-61
2023/12/20 00:53:01;;;;;;;8.65;1.92;;;5.20;99.90;;;;;;5046454;28;20086;-61
2023/12/20 00:55:28;;;;;;;8.45;1.75;;;5.20;99.90;;;;;;5038414;28;20462;-61
2023/12/20 00:57:55;;;;;;;8.27;1.90;;;5.20;99.90;;;;;;5036216;28;20506;-62
2023/12/20 01:00:21;;;;;;;11.23;2.17;;;5.20;99.90;;;;;;5036354;28;20043;-61
2023/12/20 01:02:49;;;;;;;12.32;2.10;;;5.30;99.90;;;;;;5035858;28;20056;-62
2023/12/20 01:05:17;;;;;;;10.05;2.15;;;5.30;99.90;;;;;;5036318;28;20406;-61
2023/12/20 01:07:44;;;;;;;10.95;2.17;;;5.30;99.90;;;;;;5044174;28;20049;-62
2023/12/20 01:10:11;;;;;;;12.80;2.25;;;5.30;99.90;;;;;;5044891;28;20471;-61
2023/12/20 01:12:38;;;;;;;8.23;2.13;;;5.30;99.90;;;;;;5045248;28;20049;-62
2023/12/20 01:15:05;;;;;;;10.88;1.92;;;5.20;99.90;;;;;;5046576;28;20072;-62
2023/12/20 01:17:32;;;;;;;11.98;2.13;;;5.20;99.90;;;;;;5044828;28;20523;-62
2023/12/20 01:19:58;;;;;;;11.23;2.20;;;5.20;99.90;;;;;;5045129;28;20033;-61
2023/12/20 01:22:25;;;;;;;12.27;2.17;;;5.20;99.90;;;;;;5049627;28;20052;-61
2023/12/20 01:24:52;;;;;;;10.25;2.10;;;5.20;99.90;;;;;;5055991;28;20041;-61
2023/12/20 01:27:19;;;;;;;13.70;2.00;;;5.30;99.90;;;;;;5049870;28;20038;-62
2023/12/20 01:29:46;;;;;;;10.20;1.80;;;5.20;99.90;;;;;;5044931;28;20064;-61
2023/12/20 01:32:13;;;;;;;7.68;1.77;;;5.30;99.90;;;;;;5043237;28;20083;-62
2023/12/20 01:34:39;;;;;;;11.18;1.85;;;5.30;99.90;;;;;;5040808;28;20075;-62
2023/12/20 01:37:06;;;;;;;10.63;2.30;;;5.30;99.90;;;;;;5044356;28;20474;-64
2023/12/20 01:39:33;;;;;;;12.98;3.03;;;5.30;99.90;;;;;;5034621;28;20037;-62
2023/12/20 01:42:00;;;;;;;10.85;1.85;;;5.30;99.90;;;;;;5035134;28;20116;-61
2023/12/20 01:44:27;;;;;;;10.40;2.20;;;5.30;99.90;;;;;;5035261;28;20038;-61
2023/12/20 01:46:54;;;;;;;10.23;2.15;;;5.30;99.90;;;;;;5034892;28;20073;-63
2023/12/20 01:49:20;;;;;;;8.95;1.90;;;5.30;99.90;;;;;;5033591;28;20053;-62
2023/12/20 01:51:47;;;;;;;14.57;2.33;;;5.30;99.90;;;;;;5035385;28;20069;-61
2023/12/20 01:54:14;;;;;;;10.65;2.45;;;5.30;99.90;;;;;;5034782;28;20084;-61
2023/12/20 01:56:41;;;;;;;9.48;2.05;;;5.30;99.90;;;;;;5035397;28;20045;-63
2023/12/20 01:59:09;;;;;;;7.72;1.75;;;5.30;99.90;;;;;;5034663;28;20458;-62
2023/12/20 02:01:35;;;;;;;15.02;2.05;;;5.30;99.90;;;;;;5034626;28;20037;-62
2023/12/20 02:04:02;;;;;;;10.32;1.85;;;5.30;99.90;;;;;;5033610;28;20037;-61
2023/12/20 02:06:30;;;;;;;10.63;2.10;;;5.30;99.90;;;;;;5034744;28;20037;-61
2023/12/20 02:08:57;;;;;;;12.82;2.45;;;5.30;99.90;;;;;;5034804;28;20053;-61
2023/12/20 02:11:24;;;;;;;6.50;1.77;;;5.30;99.90;;;;;;5033382;28;20037;-62
2023/12/20 02:13:51;;;;;;;8.65;2.22;;;5.30;99.90;;;;;;5034505;28;20096;-61
2023/12/20 02:16:18;;;;;;;13.52;2.50;;;5.30;99.90;;;;;;5034083;28;20049;-61
2023/12/20 02:18:45;;;;;;;10.82;1.83;;;5.30;99.90;;;;;;5034220;28;20041;-68
2023/12/20 02:21:12;;;;;;;11.82;2.05;;;5.30;99.90;;;;;;5034203;28;20041;-62
2023/12/20 02:23:38;;;;;;;10.43;1.90;;;5.30;99.90;;;;;;5034061;28;20260;-61
2023/12/20 02:26:06;;;;;;;10.55;2.50;;;5.30;99.90;;;;;;5033844;28;20033;-61
2023/12/20 02:28:33;;;;;;;11.30;2.50;;;5.30;99.90;;;;;;5034263;28;20159;-61
2023/12/20 02:30:59;;;;;;;12.77;2.22;;;5.30;99.90;;;;;;5034080;28;20045;-60
2023/12/20 02:33:26;;;;;;;11.48;1.95;;;5.30;99.90;;;;;;5034362;28;20041;-60
2023/12/20 02:35:53;;;;;;;9.65;2.22;;;5.30;99.90;;;;;;5034218;28;20394;-62
2023/12/20 02:38:20;;;;;;;11.40;2.15;;;5.30;99.90;;;;;;5033341;28;20391;-61
2023/12/20 02:40:47;;;;;;;15.13;2.63;;;5.30;99.90;;;;;;5034069;28;20040;-59
2023/12/20 02:43:15;;;;;;;14.20;2.45;;;5.30;99.90;;;;;;5033864;28;20056;-60
2023/12/20 02:45:42;;;;;;;11.38;2.00;;;5.30;99.90;;;;;;5034290;28;20040;-61
2023/12/20 02:48:09;;;;;;;14.23;1.90;;;5.30;99.90;;;;;;5032775;28;20052;-61
2023/12/20 02:50:36;;;;;;;12.45;2.20;;;5.30;99.90;;;;;;5033865;28;20072;-61
2023/12/20 02:53:03;;;;;;;14.25;2.75;;;5.30;99.90;;;;;;5034266;28;20048;-61
2023/12/20 02:55:30;;;;;;;11.70;2.03;;;5.30;99.90;;;;;;5033631;28;20103;-61
2023/12/20 02:57:57;;;;;;;15.80;2.75;;;5.30;99.90;;;;;;5032580;28;20037;-61
2023/12/20 03:00:24;;;;;;;10.48;2.53;;;5.30;99.90;;;;;;5033585;28;20041;-61
2023/12/20 03:02:50;;;;;;;10.98;2.22;;;5.30;99.90;;;;;;5033944;28;20129;-61
2023/12/20 03:05:17;;;;;;;9.75;1.77;;;5.30;99.90;;;;;;5033651;28;20528;-61
2023/12/20 03:07:44;;;;;;;14.18;2.22;;;5.30;99.90;;;;;;5033562;28;20041;-62
2023/12/20 03:10:11;;;;;;;10.18;2.05;;;5.30;99.90;;;;;;5032741;28;20390;-62
2023/12/20 03:12:49;;;;;;;9.68;2.08;;;5.30;99.90;;;;;;5033396;28;20061;-62
2023/12/20 03:15:16;;;;;;;12.85;2.47;;;5.30;99.90;;;;;;5033147;28;20450;-61
2023/12/20 03:17:43;;;;;;;9.30;2.25;;;5.30;99.90;;;;;;5033484;28;20065;-61
2023/12/20 03:20:11;;;;;;;10.68;2.60;;;5.30;99.90;;;;;;5033468;28;20445;-61
2023/12/20 03:22:38;;;;;;;12.73;2.28;;;5.30;99.90;;;;;;5032435;28;20073;-61
2023/12/20 03:25:04;;;;;;;14.25;2.50;;;5.20;99.90;;;;;;5033243;28;20033;-60
2023/12/20 03:27:32;;;;;;;15.30;2.15;;;5.20;99.90;;;;;;5032284;28;20049;-61
2023/12/20 03:29:58;;;;;;;10.80;1.73;;;5.20;99.90;;;;;;5032983;28;20088;-61
2023/12/20 03:32:25;;;;;;;13.40;2.50;;;5.20;99.90;;;;;;5033399;28;20072;-61
2023/12/20 03:34:52;;;;;;;14.25;2.40;;;5.20;99.90;;;;;;5033528;28;20059;-60
2023/12/20 03:37:19;;;;;;;16.30;2.60;;;5.20;99.90;;;;;;5033126;28;20083;-61
2023/12/20 03:39:46;;;;;;;12.38;2.30;;;5.20;99.90;;;;;;5032888;28;20049;-60
2023/12/20 03:42:13;;;;;;;11.98;2.30;;;5.20;99.90;;;;;;5033448;28;20046;-60
2023/12/20 03:44:40;;;;;;;15.52;2.53;;;5.10;99.90;;;;;;5033141;28;20513;-60
2023/12/20 03:47:07;;;;;;;15.20;2.42;;;5.10;99.90;;;;;;5033232;28;20056;-60
2023/12/20 03:49:34;;;;;;;15.18;2.50;;;5.20;99.90;;;;;;5032930;28;20096;-60
2023/12/20 03:52:01;;;;;;;9.40;2.10;;;5.10;99.90;;;;;;5033364;28;20379;-60
2023/12/20 03:54:28;;;;;;;12.30;2.78;;;5.10;99.90;;;;;;5033155;28;20049;-60
2023/12/20 03:56:54;;;;;;;14.60;2.40;;;5.10;99.90;;;;;;5032722;28;20049;-60
2023/12/20 03:59:21;;;;;;;12.68;2.33;;;5.10;99.90;;;;;;5032466;28;20034;-60
2023/12/20 04:01:48;;;;;;;9.18;2.33;;;5.10;99.90;;;;;;5032679;28;20120;-60
2023/12/20 04:04:15;;;;;;;13.18;2.85;;;5.10;99.90;;;;;;5033129;28;20034;-61
2023/12/20 04:06:42;;;;;;;13.90;2.95;;;5.10;99.90;;;;;;5033269;28;20046;-61
2023/12/20 04:09:09;;;;;;;14.73;2.30;;;5.10;99.90;;;;;;5031662;28;20052;-61
2023/12/20 04:11:36;;;;;;;8.45;1.95;;;5.10;99.90;;;;;;5033090;28;20422;-61
2023/12/20 04:14:04;;;;;;;13.82;2.30;;;5.10;99.90;;;;;;5032869;28;20111;-61
2023/12/20 04:16:31;;;;;;;10.02;2.03;;;5.10;99.90;;;;;;5032965;28;20049;-61
2023/12/20 04:18:58;;;;;;;11.50;2.42;;;5.10;99.90;;;;;;5032784;28;20037;-60
2023/12/20 04:21:25;;;;;;;13.27;2.25;;;5.10;99.90;;;;;;5032638;28;20041;-60
2023/12/20 04:23:52;;;;;;;10.07;2.38;;;5.10;99.90;;;;;;5032713;28;20060;-60
2023/12/20 04:26:18;;;;;;;13.07;1.80;;;5.10;99.90;;;;;;5033281;28;20115;-60
2023/12/20 04:28:45;;;;;;;11.35;2.50;;;5.10;99.90;;;;;;5036066;28;20037;-60
2023/12/20 04:31:12;;;;;;;13.70;2.35;;;5.10;99.90;;;;;;5036843;28;20053;-61
2023/12/20 04:33:39;;;;;;;12.40;2.30;;;5.10;99.90;;;;;;5036687;28;20045;-61
2023/12/20 04:36:06;;;;;;;14.73;2.20;;;5.10;99.90;;;;;;5036306;28;20356;-60
2023/12/20 04:38:33;;;;;;;14.07;2.40;;;5.10;99.90;;;;;;5036376;28;20125;-61
2023/12/20 04:40:59;;;;;;;11.02;2.45;;;5.00;99.90;;;;;;5036398;28;20382;-62
2023/12/20 04:43:26;;;;;;;14.68;3.28;;;5.00;99.90;;;;;;5036447;28;20060;-61
2023/12/20 04:45:53;;;;;;;9.82;2.30;;;5.00;99.90;;;;;;5036204;28;20061;-62
2023/12/20 04:48:20;;;;;;;13.10;2.45;;;5.00;99.90;;;;;;5036378;28;20033;-61
2023/12/20 04:50:47;;;;;;;12.48;2.28;;;5.00;99.90;;;;;;5034753;28;20037;-61
2023/12/20 04:53:13;;;;;;;20.73;2.65;;;5.00;99.90;;;;;;5036305;28;20080;-61
2023/12/20 04:55:40;;;;;;;19.23;2.85;;;5.00;99.90;;;;;;5034820;28;20128;-61
2023/12/20 04:58:07;;;;;;;14.95;2.78;;;5.00;99.90;;;;;;5050901;28;20045;-61
2023/12/20 05:00:34;;;;;;;15.75;2.72;;;5.10;99.90;;;;;;5055900;28;20059;-61
2023/12/20 05:03:01;;;;;;;15.68;3.03;;;5.10;99.90;;;;;;5056106;28;20045;-61
2023/12/20 05:05:28;;;;;;;15.18;2.25;;;5.10;99.90;;;;;;5055933;28;20479;-61
2023/12/20 05:07:55;;;;;;;11.75;2.40;;;5.10;99.90;;;;;;5056067;28;20087;-61
2023/12/20 05:10:22;;;;;;;12.48;2.40;;;5.10;99.90;;;;;;5055565;28;20049;-61
2023/12/20 05:12:49;;;;;;;14.25;2.45;;;5.10;99.90;;;;;;5055559;28;20448;-61
2023/12/20 05:15:15;;;;;;;12.23;2.38;;;5.10;99.90;;;;;;5055989;28;20099;-61
2023/12/20 05:17:42;;;;;;;17.73;3.78;;;5.10;99.90;;;;;;5054569;28;20048;-61
2023/12/20 05:20:10;;;;;;;19.42;2.95;;;5.10;99.90;;;;;;5054422;28;20467;-61
2023/12/20 05:22:37;;;;;;;15.50;2.75;;;5.10;99.90;;;;;;5055756;28;20033;-61
2023/12/20 05:25:04;;;;;;;13.05;2.63;;;5.10;99.90;;;;;;5055771;28;20114;-61
2023/12/20 05:27:31;;;;;;;15.20;2.40;;;5.10;99.90;;;;;;5055277;28;20107;-61
2023/12/20 05:29:58;;;;;;;19.33;2.92;;;5.10;99.90;;;;;;5055744;28;20037;-61
2023/12/20 05:32:25;;;;;;;12.85;2.70;;;5.10;99.90;;;;;;5055469;28;20063;-61
2023/12/20 05:34:52;;;;;;;18.52;3.83;;;5.10;99.90;;;;;;5054239;28;20041;-61
2023/12/20 05:37:19;;;;;;;10.25;2.25;;;5.10;99.90;;;;;;5054791;28;20081;-61
2023/12/20 05:39:45;;;;;;;15.57;2.30;;;5.20;99.90;;;;;;5053799;28;20036;-63
2023/12/20 05:42:12;;;;;;;16.88;2.50;;;5.10;99.90;;;;;;5054924;28;20075;-62
2023/12/20 05:44:39;;;;;;;13.95;2.47;;;5.20;99.90;;;;;;5054827;28;20041;-61
2023/12/20 05:47:06;;;;;;;15.65;2.58;;;5.20;99.90;;;;;;5055187;28;20037;-61
2023/12/20 05:49:33;;;;;;;12.57;3.03;;;5.20;99.90;;;;;;5055012;28;20053;-60
2023/12/20 05:52:00;;;;;;;11.25;2.67;;;5.20;99.90;;;;;;5055033;28;20204;-61
2023/12/20 05:54:26;;;;;;;13.98;2.85;;;5.20;99.90;;;;;;5053819;28;20382;-60
2023/12/20 05:56:53;;;;;;;10.25;2.30;;;5.20;99.90;;;;;;5054978;28;20494;-60
2023/12/20 05:59:20;;;;;;;16.45;3.33;;;5.20;99.90;;;;;;5054950;28;20047;-61
2023/12/20 06:01:47;;;;;;;16.35;2.40;;;5.20;99.90;;;;;;5054705;28;20041;-60
2023/12/20 06:04:13;;;;;;;14.70;2.88;;;5.20;99.90;;;;;;5054748;28;20045;-60
2023/12/20 06:06:40;;;;;;;12.13;2.50;;;5.20;99.90;;;;;;5053683;28;20057;-60
2023/12/20 06:09:07;;;;;;;13.75;2.60;;;5.20;99.90;;;;;;5053320;28;20060;-61
2023/12/20 06:11:34;;;;;;;16.55;2.58;;;5.20;99.90;;;;;;5054648;28;20059;-60
2023/12/20 06:14:01;;;;;;;13.07;2.30;;;5.30;99.90;;;;;;5054570;28;20036;-61
2023/12/20 06:16:28;;;;;;;15.43;2.13;;;5.30;99.90;;;;;;5054965;28;20076;-61
2023/12/20 06:18:55;;;;;;;14.15;3.17;;;5.30;99.90;;;;;;5054414;28;20466;-61
2023/12/20 06:21:21;;;;;;;11.07;2.30;;;5.30;99.90;;;;;;5054831;28;20107;-62
2023/12/20 06:23:51;;;;;;;13.05;2.78;;;5.30;99.90;;;;;;5054510;28;20420;-61
2023/12/20 06:26:18;;;;;;;13.27;2.78;;;5.30;99.90;;;;;;5054514;28;20037;-62
2023/12/20 06:28:45;;;;;;;9.75;2.20;;;5.30;99.90;;;;;;5054179;28;20044;-61
2023/12/20 06:31:11;;;;;;;18.75;3.00;;;5.40;99.90;;;;;;5054184;28;20155;-61
2023/12/20 06:33:41;;;;;;;14.38;2.60;;;5.40;99.90;;;;;;5054575;28;20065;-61
2023/12/20 06:36:08;;;;;;;12.57;2.35;;;5.30;99.90;;;;;;5054016;28;20087;-61
2023/12/20 06:38:34;;;;;;;13.18;2.03;;;5.40;99.90;;;;;;5054069;28;20040;-61
2023/12/20 06:41:01;;;;;;;12.88;2.53;;;5.40;99.90;;;;;;5054351;28;20368;-61
2023/12/20 06:43:29;;;;;;;18.48;2.83;;;5.40;99.90;;;;;;5054225;28;20359;-61
2023/12/20 06:46:16;;;;;;;14.95;2.63;;;5.40;99.90;;;;;;5054348;28;20049;-62
2023/12/20 06:48:43;;;;;;;13.18;2.40;;;5.40;99.90;;;;;;5035776;28;20475;-61
2023/12/20 06:51:11;;;;;;;14.02;2.55;;;5.40;99.90;;;;;;5054242;28;20494;-61
2023/12/20 06:53:37;;;;;;;14.90;3.00;;;5.50;99.90;;;;;;5053704;28;20041;-61
2023/12/20 06:56:04;;;;;;;14.45;3.60;;;5.50;99.90;;;;;;5053894;28;20048;-61
2023/12/20 06:58:31;;;;;;;18.45;3.55;;;5.50;99.90;;;;;;5053362;28;20056;-61
2023/12/20 07:00:58;;;;;;;10.98;2.03;;;5.50;99.90;;;;;;5053616;28;20037;-62
2023/12/20 07:03:24;;;;;;;17.55;2.72;;;5.50;99.90;;;;;;5053583;28;20159;-61
2023/12/20 07:05:51;;;;;;;13.18;2.67;;;5.50;99.90;;;;;;5053649;28;20037;-62
2023/12/20 07:08:19;;;;;;;14.77;2.20;;;5.50;99.90;;;;;;5052099;28;20045;-62
2023/12/20 07:10:46;;;;;;;19.35;2.60;;;5.50;99.90;;;;;;5053379;28;20094;-62
2023/12/20 07:13:12;;;;;;;17.48;3.28;;;5.50;99.90;;;;;;5053652;28;20044;-61
2023/12/20 07:15:40;;;;;;;12.90;2.40;;;5.50;99.90;;;;;;5053945;28;20378;-61
2023/12/20 07:18:07;;;;;;;15.57;2.95;;;5.50;99.90;;;;;;5053538;28;20475;-60
2023/12/20 07:20:34;;;;;;;12.60;2.58;;;5.60;99.90;;;;;;5053264;28;20430;-60
2023/12/20 07:23:01;;;;;;;9.13;2.08;;;5.70;99.90;;;;;;5053613;28;20033;-60
2023/12/20 07:25:27;;;;;;;12.38;2.80;;;5.60;99.90;;;;;;5053348;28;20044;-60
2023/12/20 07:27:55;;;;;;;11.45;2.50;;;5.60;99.90;;;;;;5053194;28;20367;-61
2023/12/20 07:30:22;;;;;;;13.20;2.55;;;5.60;99.90;;;;;;5053742;28;20348;-60
2023/12/20 07:32:48;;;;;;;11.48;2.88;;;5.60;99.90;;;;;;5053161;28;20474;-61
2023/12/20 07:35:15;;;;;;;9.43;2.63;;;5.70;99.90;;;;;;5053284;28;20098;-62
2023/12/20 07:37:43;;;;;;;13.50;2.50;;;5.70;99.90;;;;;;5053036;28;20053;-62
2023/12/20 07:40:10;;;;;;;17.13;2.85;;;5.70;99.90;;;;;;5053012;28;20089;-61
2023/12/20 07:42:37;;;;;;;10.13;2.45;;;5.70;99.90;;;;;;5053137;28;20039;-62
2023/12/20 07:45:03;;;;;;;18.13;2.65;;;5.70;99.90;;;;;;5053205;28;20052;-62
2023/12/20 07:47:30;;;;;;;17.83;2.50;;;5.70;99.90;;;;;;5053189;28;20490;-61
2023/12/20 07:49:57;;;;;;;24.83;3.40;;;5.80;99.90;;;;;;5053097;28;20036;-61
2023/12/20 07:52:25;;;;;;;12.70;2.58;;;5.80;99.90;;;;;;5051510;28;20044;-61
2023/12/20 07:54:52;;;;;;;16.05;2.78;;;5.80;99.90;;;;;;5052929;28;20052;-61
2023/12/20 07:57:19;;;;;;;17.17;3.20;;;5.80;99.90;;;;;;5053090;28;20383;-61
2023/12/20 07:59:46;;;;;;;20.63;2.85;;;5.90;99.90;;;;;;5053736;28;20482;-62
2023/12/20 08:02:13;;;;;;;17.90;2.90;;;5.90;99.90;;;;;;5057524;28;20044;-60
2023/12/20 08:04:40;;;;;;;18.42;2.97;;;5.90;99.90;;;;;;5057339;28;20076;-61
2023/12/20 08:07:07;;;;;;;15.23;2.45;;;5.90;99.90;;;;;;5055522;28;20143;-61
2023/12/20 08:09:36;;;;;;;15.77;3.05;;;5.90;99.90;;;;;;5057211;28;20037;-61
2023/12/20 08:12:03;;;;;;;14.02;2.63;;;5.90;99.90;;;;;;5057250;28;20064;-60
2023/12/20 08:14:31;;;;;;;15.82;2.30;;;5.90;99.90;;;;;;5056863;28;20037;-61
2023/12/20 08:16:58;;;;;;;16.20;3.08;;;5.90;99.90;;;;;;5056643;28;20041;-62
2023/12/20 08:19:25;;;;;;;14.95;2.72;;;5.90;99.90;;;;;;5056779;28;20493;-60
2023/12/20 08:21:52;;;;;;;17.38;2.97;;;5.90;99.90;;;;;;5056226;28;20540;-61
2023/12/20 08:24:18;;;;;;;15.68;2.85;;;6.00;99.90;;;;;;5056413;28;20068;-61
2023/12/20 08:26:46;;;;;;;13.93;2.80;;;6.00;99.90;;;;;;5056539;28;20406;-61
2023/12/20 08:29:13;;;;;;;14.70;2.83;;;6.00;99.90;;;;;;5056558;28;20072;-61
2023/12/20 08:31:39;;;;;;;13.73;2.72;;;6.00;99.90;;;;;;5056401;28;20118;-61
2023/12/20 08:34:06;;;;;;;15.20;2.53;;;6.00;99.90;;;;;;5056581;28;20040;-61
2023/12/20 08:36:35;;;;;;;13.63;2.85;;;6.00;99.90;;;;;;5055966;28;20076;-61
2023/12/20 08:39:03;;;;;;;18.50;3.45;;;6.00;99.90;;;;;;5056271;28;20131;-61
2023/12/20 08:41:30;;;;;;;16.70;2.53;;;6.10;99.90;;;;;;5056483;28;20454;-61
2023/12/20 08:43:57;;;;;;;12.75;2.75;;;6.10;99.90;;;;;;5056337;28;20052;-63
2023/12/20 08:46:23;;;;;;;15.45;3.13;;;6.10;99.90;;;;;;5056409;28;20133;-62
2023/12/20 08:48:50;;;;;;;16.75;2.83;;;6.10;99.90;;;;;;5056360;28;20382;-62
2023/12/20 08:51:17;;;;;;;13.20;2.95;;;6.10;99.90;;;;;;5056271;28;20053;-61
2023/12/20 08:53:46;;;;;;;14.90;2.92;;;6.10;99.90;;;;;;5055399;28;20112;-61
2023/12/20 08:56:13;;;;;;;14.98;3.10;;;6.20;99.90;;;;;;5055882;28;20045;-61
2023/12/20 08:58:39;;;;;;;16.50;3.30;;;6.20;99.90;;;;;;5055997;28;20044;-62
2023/12/20 09:01:07;;;;;;;17.35;3.15;;;6.20;99.90;;;;;;5055690;28;20494;-62
2023/12/20 09:03:34;;;;;;;18.38;3.67;;;6.30;99.90;;;;;;5056415;28;20437;-62
2023/12/20 09:06:01;;;;;;;16.85;2.83;;;6.30;99.90;;;;;;5056210;28;20433;-62
2023/12/20 09:08:28;;;;;;;12.38;2.90;;;6.30;99.90;;;;;;5055954;28;20374;-62
2023/12/20 09:10:54;;;;;;;16.20;2.63;;;6.40;99.90;;;;;;5055225;28;20048;-62
2023/12/20 09:13:26;;;;;;;11.18;2.55;;;6.50;99.90;;;;;;5055272;28;20076;-62
2023/12/20 09:15:53;;;;;;;17.65;2.88;;;6.50;99.90;;;;;;5055877;28;20044;-61
2023/12/20 09:18:20;;;;;;;17.02;4.30;;;6.50;99.90;;;;;;5056279;28;20076;-62
2023/12/20 09:20:47;;;;;;;13.07;2.70;;;6.50;99.90;;;;;;5055541;28;20095;-62
2023/12/20 09:23:17;;;;;;;15.43;3.45;;;6.60;99.90;;;;;;5055729;28;20052;-62
2023/12/20 09:25:44;;;;;;;14.88;2.85;;;6.60;99.90;;;;;;5055896;28;20127;-62
2023/12/20 09:28:10;;;;;;;14.88;4.25;;;6.70;99.90;;;;;;5055774;28;20371;-62
2023/12/20 09:30:39;;;;;;;14.27;2.70;;;6.70;99.90;;;;;;5055900;28;20045;-61
2023/12/20 09:33:07;;;;;;;12.15;3.00;;;6.80;99.90;;;;;;5055808;28;20041;-62
2023/12/20 09:35:34;;;;;;;14.73;3.45;;;6.90;99.90;;;;;;5054822;28;20064;-62
2023/12/20 09:38:01;;;;;;;12.63;2.97;;;6.90;99.90;;;;;;5055332;28;20136;-62
2023/12/20 09:40:28;;;;;;;16.30;3.70;;;7.00;99.90;;;;;;5055175;28;20399;-63
2023/12/20 09:42:56;;;;;;;14.73;4.00;;;7.10;99.90;;;;;;5055573;28;20032;-62
2023/12/20 09:45:23;;;;;;;12.13;3.13;;;7.20;99.90;;;;;;5054923;28;20191;-62
2023/12/20 09:47:50;;;;;;;12.35;3.05;;;7.30;99.90;;;;;;5055092;28;20047;-62
2023/12/20 09:50:16;;;;;;;14.38;2.90;;;7.40;99.90;;;;;;5053785;28;20068;-62
2023/12/20 09:52:43;;;;;;;12.75;2.78;;;7.50;99.90;;;;;;5054901;28;20044;-62
2023/12/20 09:55:10;;;;;;;13.45;2.88;;;7.60;99.90;;;;;;5055423;28;20060;-62
2023/12/20 09:57:37;;;;;;;16.10;3.22;;;7.70;99.90;;;;;;5055335;28;20043;-62
2023/12/20 10:00:04;;;;;;;13.90;3.63;;;7.70;99.90;;;;;;5055165;28;20479;-62
2023/12/20 10:02:37;;;;;;;9.43;2.70;;;7.80;99.90;;;;;;5055328;28;20068;-62
2023/12/20 10:05:04;;;;;;;12.25;2.80;;;7.80;99.90;;;;;;5055277;28;20075;-62
2023/12/20 10:07:31;;;;;;;15.57;2.67;;;7.90;99.90;;;;;;5054816;28;20433;-62
2023/12/20 10:09:58;;;;;;;14.35;2.75;;;7.90;99.90;;;;;;5053827;28;20505;-62
2023/12/20 10:12:25;;;;;;;16.02;2.83;;;7.90;99.90;;;;;;5048936;28;20045;-62
2023/12/20 10:14:51;;;;;;;12.90;2.83;;;7.90;99.90;;;;;;5034034;28;20088;-62
2023/12/20 10:17:18;;;;;;;16.38;2.85;;;8.00;99.90;;;;;;5035293;28;20450;-61
2023/12/20 10:19:45;;;;;;;12.55;3.42;;;8.00;99.90;;;;;;5046082;28;20390;-62
2023/12/20 10:22:12;;;;;;;9.57;2.38;;;8.00;99.90;;;;;;5053873;28;20044;-63
2023/12/20 10:24:39;;;;;;;13.77;3.03;;;8.00;99.90;;;;;;5047836;28;20033;-62
2023/12/20 10:27:06;;;;;;;14.23;2.67;;;8.10;99.90;;;;;;5054292;28;20049;-62
2023/12/20 10:29:33;;;;;;;12.45;2.88;;;8.10;99.90;;;;;;5049431;28;20060;-62
2023/12/20 10:32:01;;;;;;;11.88;2.38;;;8.10;99.90;;;;;;5034647;28;20041;-62
2023/12/20 10:34:28;;;;;;;10.90;2.13;;;8.20;99.90;;;;;;5041007;28;20037;-62
2023/12/20 10:36:55;;;;;;;11.35;2.38;;;8.20;99.90;;;;;;5034065;28;20137;-61
2023/12/20 10:39:21;;;;;;;16.08;2.47;;;8.30;99.90;;;;;;5045281;28;20116;-61
2023/12/20 10:41:48;;;;;;;11.82;2.50;;;8.30;99.90;;;;;;5053149;28;20036;-61
2023/12/20 10:44:16;;;;;;;12.55;2.90;;;8.30;99.90;;;;;;5048461;28;20045;-61
2023/12/20 10:46:47;;;;;;;9.15;3.22;;;8.40;99.90;;;;;;5032757;28;20044;-61
2023/12/20 10:49:14;;;;;;;10.27;2.78;;;8.40;99.90;;;;;;5036826;28;20041;-61
2023/12/20 10:51:41;;;;;;;13.00;3.17;;;8.50;99.90;;;;;;5034058;28;20045;-61
2023/12/20 10:54:08;;;;;;;10.60;2.90;;;8.50;99.90;;;;;;5039126;28;20037;-62
2023/12/20 10:56:35;;;;;;;10.15;2.10;;;8.50;99.90;;;;;;5034963;28;20076;-61
2023/12/20 10:59:04;;;;;;;8.93;2.15;;;8.60;99.90;;;;;;5037407;28;20033;-61
2023/12/20 11:01:31;;;;;;;8.35;2.28;;;8.60;99.90;;;;;;5052929;28;20522;-61
2023/12/20 11:03:58;;;;;;;9.70;2.25;;;8.60;99.90;;;;;;5052548;28;20434;-61
2023/12/20 11:06:25;;;;;;;10.07;1.90;;;8.60;99.90;;;;;;5041421;28;20047;-62
2023/12/20 11:08:52;;;;;;;9.02;2.10;;;8.70;99.90;;;;;;5035250;28;20475;-61
2023/12/20 11:11:18;;;;;;;9.23;2.05;;;8.70;99.90;;;;;;5052758;28;20049;-62
2023/12/20 11:13:45;;;;;;;7.05;1.63;;;8.70;99.90;;;;;;5051182;28;20124;-62
2023/12/20 11:16:12;;;;;;;8.50;1.73;;;8.70;99.90;;;;;;5046289;28;20095;-62
2023/12/20 11:18:39;;;;;;;9.93;2.88;;;8.70;99.90;;;;;;5041541;28;20041;-62
2023/12/20 11:21:06;;;;;;;7.72;1.65;;;8.70;99.90;;;;;;5039389;28;20077;-62
2023/12/20 11:23:34;;;;;;;12.13;3.28;;;8.70;99.90;;;;;;5051179;28;20429;-60
2023/12/20 11:26:01;;;;;;;8.25;2.10;;;8.70;99.90;;;;;;5040192;28;20086;-61
2023/12/20 11:28:29;;;;;;;6.70;1.60;;;8.80;99.90;;;;;;5047929;28;20064;-62
2023/12/20 11:30:58;;;;;;;10.75;2.08;;;8.80;99.90;;;;;;5039709;28;20041;-61
2023/12/20 11:33:25;;;;;;;8.10;1.75;;;8.80;99.90;;;;;;5034668;28;20068;-61
2023/12/20 11:35:56;;;;;;;6.70;1.77;;;8.80;99.90;;;;;;5032566;28;20049;-61
2023/12/20 11:38:23;;;;;;;8.13;2.15;;;8.80;99.90;;;;;;5033610;28;20076;-61
2023/12/20 11:40:50;;;;;;;10.60;2.38;;;8.90;99.90;;;;;;5033063;28;20489;-63
2023/12/20 11:43:17;;;;;;;9.20;2.30;;;8.90;99.90;;;;;;5038386;28;20044;-61
2023/12/20 11:45:44;;;;;;;9.90;2.00;;;8.90;99.90;;;;;;5034722;28;20514;-61
2023/12/20 11:48:11;;;;;;;9.77;2.63;;;9.00;99.90;;;;;;5036344;28;20107;-61
2023/12/20 11:50:38;;;;;;;10.70;2.13;;;9.00;99.90;;;;;;5034719;28;20046;-61
2023/12/20 11:53:05;;;;;;;7.43;2.03;;;9.10;99.90;;;;;;5035583;28;20096;-61
2023/12/20 11:55:32;;;;;;;10.15;1.83;;;9.10;99.90;;;;;;5042044;28;20478;-61
2023/12/20 11:57:59;;;;;;;12.10;2.60;;;9.10;99.90;;;;;;5051913;28;20041;-61
2023/12/20 12:00:25;;;;;;;8.45;2.05;;;9.10;99.90;;;;;;5034844;28;20073;-61
2023/12/20 12:02:52;;;;;;;9.00;2.10;;;9.20;99.90;;;;;;5033011;28;20045;-60
2023/12/20 12:05:19;;;;;;;9.38;1.92;;;9.20;99.90;;;;;;5034721;28;20124;-62
2023/12/20 12:07:46;;;;;;;7.55;2.15;;;9.20;99.90;;;;;;5034686;28;20402;-62
2023/12/20 12:10:14;;;;;;;9.02;1.70;;;9.30;99.90;;;;;;5034758;28;20493;-62
2023/12/20 12:12:41;;;;;;;6.28;1.70;;;9.30;99.90;;;;;;5033860;28;20053;-61
2023/12/20 12:15:09;;;;;;;6.40;1.80;;;9.30;99.90;;;;;;5034992;28;20107;-61
2023/12/20 12:17:35;;;;;;;8.38;2.00;;;9.40;99.90;;;;;;5032723;28;20406;-61
2023/12/20 12:20:04;;;;;;;7.85;1.80;;;9.50;99.90;;;;;;5034780;28;20048;-62
2023/12/20 12:22:31;;;;;;;10.52;2.33;;;9.50;99.90;;;;;;5042880;28;20037;-61
2023/12/20 12:24:58;;;;;;;10.10;2.05;;;9.50;99.90;;;;;;5038193;28;20120;-61
2023/12/20 12:27:25;;;;;;;6.82;1.60;;;9.50;99.90;;;;;;5051478;28;20044;-62
2023/12/20 12:29:52;;;;;;;11.88;3.17;;;9.50;99.90;;;;;;5033793;28;20033;-61
2023/12/20 12:32:18;;;;;;;9.48;1.70;;;9.40;99.90;;;;;;5034889;28;20407;-62
2023/12/20 12:34:45;;;;;;;7.38;1.85;;;9.40;99.90;;;;;;5032648;28;20046;-70
2023/12/20 12:37:12;;;;;;;5.82;1.40;;;9.40;99.90;;;;;;5032508;28;20049;-61
2023/12/20 12:39:39;;;;;;;5.78;1.65;;;9.40;99.90;;;;;;5032822;28;20041;-63
2023/12/20 12:42:06;;;;;;;6.97;1.63;;;9.40;99.90;;;;;;5032961;28;20038;-61
2023/12/20 12:44:33;;;;;;;6.18;1.23;;;9.50;99.90;;;;;;5039642;28;20033;-62
2023/12/20 12:47:00;;;;;;;6.35;1.40;;;9.60;99.90;;;;;;5040579;28;20036;-62